Westlake, Louisiana
Current Conditions -  °F | °C
As of 4:15 AM on Friday 31 Oct 2014 (Local Time) from KCWF Reporting Station
Broken Clouds Broken Clouds  
Wind Chill: 54°   Ceiling: 8000
Heat Index: 54°   Visibility: 10mi
Dew Point: 50°   Wind: 0mph
Humidity: 85%   Direction: NA
Pressure: 30.07"   Gusts: NA
Location:  30.24°N, 93.25°W
Report Text: KCWF 310915Z AUTO 00000KT 10SM BKN080 12/10 A3007 RMK AO2 T01230099
Loading
Personal Weather Stations






























Interactive Weather Map
Tropical Storm Tracking
New forecast layout! Learn more

10-Day Weather Forecast

Advertisements
Track Severe Weather on mobile